Ganges, Canada
Current Conditions -  °F | °C
As of 12:12 PM on Saturday 20 Dec 2014 (Local Time) from CYYJ Reporting Station
Light Rain Light Rain  
Wind Chill: 42°   Ceiling: 1400
Heat Index: 48°   Visibility: 8mi
Dew Point: 45°   Wind: 17mph
Humidity: 87%   Direction: 130°SE
Pressure: 29.48"   Gusts: 31mph
Location:  48.85°N, 123.52°W
Report Text: CYYJ 202012Z 13015G27KT 8SM -RA FEW009 BKN014 OVC025 09/07 A2948 RMK SC1SC6SC2 SC TR PRESFR SLP982
Loading
Personal Weather Stations






























Interactive Weather Map New forecast layout! Learn more

10-Day Weather Forecast

Advertisements
Track Severe Weather on mobile